Capitol Reef, Utah
Current Conditions -  °F | °C
As of 8:53 AM on Wednesday 28 Jan 2015 (Local Time) from KBCE Reporting Station
Clear Clear  
Wind Chill: 26°   Ceiling: Unl
Heat Index: 26°   Visibility: NA
Dew Point: 24°   Wind: 3mph
Humidity: 92%   Direction: 260°W
Pressure: 30.3"   Gusts: NA
Location:  38.2517°N, 111.706°W
Report Text: KBCE 281553Z AUTO 26003KT CLR M03/M04 A3030 RMK AO2 SLP246 T10331044 $
Loading
Personal Weather Stations






























Interactive Weather Map New forecast layout! Learn more

10-Day Weather Forecast

Advertisements
Track Severe Weather on mobile